createdAt,value
2022-10-13T07:04:06.815Z,51.22
2022-10-13T07:06:34.954Z,52.97
2022-10-13T07:09:07.975Z,51.92
2022-10-13T07:11:35.992Z,55.13
2022-10-13T07:14:03.881Z,52.97
2022-10-13T07:16:32.255Z,57.80
2022-10-13T07:19:00.215Z,67.95
2022-10-13T07:21:28.013Z,58.67
2022-10-13T07:23:56.337Z,64.32
2022-10-13T07:26:24.278Z,59.13
2022-10-13T07:28:53.241Z,52.00
2022-10-13T07:31:21.893Z,65.20
2022-10-13T07:33:51.694Z,58.53
2022-10-13T07:36:19.822Z,56.95
2022-10-13T07:38:47.629Z,53.97
2022-10-13T07:41:16.166Z,59.00
2022-10-13T07:43:44.028Z,57.05
2022-10-13T07:46:14.237Z,60.25
2022-10-13T07:48:42.323Z,60.90
2022-10-13T07:51:13.376Z,62.60
2022-10-13T07:53:43.419Z,67.72
2022-10-13T07:56:13.586Z,68.43
2022-10-13T07:58:46.152Z,60.60
2022-10-13T08:01:18.465Z,64.50
2022-10-13T08:03:50.090Z,57.08
2022-10-13T08:06:19.348Z,54.47
2022-10-13T08:08:49.445Z,82.40
2022-10-13T08:11:20.489Z,61.88
2022-10-13T08:13:50.423Z,60.38
2022-10-13T08:16:23.964Z,56.00
2022-10-13T08:18:51.855Z,57.58
2022-10-13T08:24:14.801Z,62.00
2022-10-13T08:26:45.158Z,64.57
2022-10-13T08:31:53.573Z,58.92
2022-10-13T08:34:24.166Z,67.05
2022-10-13T08:39:25.044Z,65.10
2022-10-13T08:41:55.136Z,64.75
2022-10-13T08:45:16.049Z,67.93
2022-10-13T08:47:45.440Z,71.03
2022-10-13T08:50:26.119Z,68.97
2022-10-13T08:53:00.019Z,66.55
2022-10-13T08:55:50.233Z,58.58
2022-10-13T08:58:26.985Z,66.32
2022-10-13T09:01:20.304Z,69.72
2022-10-13T09:04:11.139Z,62.17
2022-10-13T09:06:54.759Z,58.17
2022-10-13T09:09:22.602Z,66.60
2022-10-13T09:11:51.436Z,62.22
2022-10-13T09:14:35.649Z,58.90
2022-10-13T09:17:26.468Z,61.63
2022-10-13T09:20:25.113Z,57.55
2022-10-13T09:23:19.060Z,59.88
2022-10-13T09:25:52.544Z,67.70
2022-10-13T09:28:25.479Z,64.88
2022-10-13T09:31:26.714Z,67.75
2022-10-13T09:34:13.707Z,66.60
2022-10-13T09:37:00.878Z,66.90
2022-10-13T09:39:30.382Z,62.40
2022-10-13T09:42:25.356Z,65.32
2022-10-13T09:45:15.534Z,62.90
2022-10-13T09:48:14.067Z,65.75
2022-10-13T09:50:50.902Z,63.70
2022-10-13T09:53:21.432Z,59.78
2022-10-13T09:55:49.748Z,59.08
2022-10-13T09:58:32.472Z,65.75
2022-10-13T10:01:00.484Z,64.68
2022-10-13T10:03:34.488Z,59.83
2022-10-13T10:06:07.792Z,64.57
2022-10-13T10:09:03.400Z,68.25
2022-10-13T10:11:39.883Z,60.58
2022-10-13T10:14:32.052Z,51.88
2022-10-13T10:17:43.904Z,58.33
2022-10-13T10:20:35.434Z,53.60
2022-10-13T10:23:14.337Z,57.38
2022-10-13T10:26:13.243Z,56.88
2022-10-13T10:29:10.588Z,59.13
2022-10-13T10:32:03.468Z,56.55
2022-10-13T10:34:57.171Z,49.47
2022-10-13T10:37:47.060Z,52.70
2022-10-13T10:40:40.459Z,55.33
2022-10-13T10:43:57.097Z,54.67
2022-10-13T10:46:36.299Z,58.22
2022-10-13T10:49:19.236Z,57.05
2022-10-13T10:51:47.804Z,61.53
2022-10-13T10:54:27.688Z,51.13
2022-10-13T10:57:07.194Z,52.95
2022-10-13T10:59:53.721Z,53.63
2022-10-13T11:03:03.926Z,47.63
2022-10-13T11:05:57.583Z,45.50
2022-10-13T11:08:30.606Z,44.78
2022-10-13T11:11:40.029Z,55.63
2022-10-13T11:14:30.491Z,68.35
2022-10-13T11:16:58.350Z,44.33
2022-10-13T11:19:41.125Z,71.95
2022-10-13T11:22:15.101Z,69.10
2022-10-13T11:24:42.712Z,53.28
2022-10-13T11:27:14.856Z,44.25
2022-10-13T11:29:49.228Z,48.38
2022-10-13T11:32:46.150Z,44.67
2022-10-13T11:35:27.337Z,44.50
2022-10-13T11:38:06.769Z,46.85
2022-10-13T11:41:06.444Z,46.22
2022-10-13T11:44:30.155Z,46.83
2022-10-13T11:47:54.077Z,42.10
2022-10-13T11:50:40.958Z,47.70
2022-10-13T11:53:18.874Z,55.13
2022-10-13T11:55:56.136Z,56.08
2022-10-13T11:58:33.224Z,52.28
2022-10-13T12:01:14.298Z,48.35
2022-10-13T12:03:46.319Z,49.58
2022-10-13T12:06:21.012Z,54.85
2022-10-13T12:08:52.028Z,69.72
2022-10-13T12:11:29.974Z,65.35
2022-10-13T12:14:02.868Z,54.03
2022-10-13T12:16:30.629Z,62.30
2022-10-13T12:19:30.360Z,82.25
2022-10-13T12:22:02.049Z,56.00
2022-10-13T12:24:31.077Z,64.85
2022-10-13T12:26:59.890Z,57.45
2022-10-13T12:29:34.818Z,63.65
2022-10-13T12:32:17.815Z,61.20
2022-10-13T12:34:45.523Z,56.45
2022-10-13T12:37:33.739Z,64.05
2022-10-13T12:40:04.555Z,72.13
2022-10-13T12:42:36.307Z,65.68
2022-10-13T12:45:05.491Z,84.25
2022-10-13T12:47:45.079Z,82.65
2022-10-13T12:50:37.122Z,57.65
2022-10-13T12:53:28.623Z,62.70
2022-10-13T12:56:00.711Z,59.67
2022-10-13T12:58:34.840Z,58.95
2022-10-13T13:01:10.302Z,60.58
2022-10-13T13:03:41.052Z,55.47
2022-10-13T13:06:21.256Z,61.55
2022-10-13T13:09:29.851Z,61.58
2022-10-13T13:12:13.406Z,54.60
2022-10-13T13:14:51.067Z,63.63
2022-10-13T13:17:38.492Z,59.97
2022-10-13T13:20:26.639Z,58.53
2022-10-13T13:22:55.168Z,66.32
2022-10-13T13:25:23.689Z,67.35
2022-10-13T13:27:52.817Z,59.15
2022-10-13T13:30:23.863Z,63.83
2022-10-13T13:32:51.815Z,57.35
2022-10-13T13:35:19.655Z,58.47
2022-10-13T13:37:51.252Z,55.38
2022-10-13T13:40:23.094Z,56.13
2022-10-13T13:42:51.705Z,54.75
2022-10-13T13:45:22.884Z,54.83
2022-10-13T13:47:53.559Z,52.28
2022-10-13T13:50:28.786Z,80.55
2022-10-13T13:53:00.214Z,78.20
2022-10-13T13:55:29.838Z,75.35
2022-10-13T13:57:58.433Z,68.07
2022-10-13T14:00:26.439Z,59.40
2022-10-13T14:02:58.567Z,62.47
2022-10-13T14:05:26.655Z,50.08
2022-10-13T14:07:57.898Z,52.85
2022-10-13T14:10:26.961Z,45.00
2022-10-13T14:12:54.824Z,49.13
2022-10-13T14:15:27.212Z,48.85
2022-10-13T14:17:56.689Z,56.05
2022-10-13T14:20:24.749Z,50.63
2022-10-13T14:22:52.462Z,60.30
2022-10-13T14:25:20.461Z,65.93
2022-10-13T14:27:49.000Z,57.15
2022-10-13T14:30:17.465Z,46.33
2022-10-13T14:32:45.315Z,51.92
2022-10-13T14:35:13.063Z,61.20
2022-10-13T14:37:40.901Z,53.67
2022-10-13T14:40:09.310Z,51.05
2022-10-13T14:42:39.010Z,45.72
2022-10-13T14:45:08.363Z,48.55
2022-10-13T14:47:36.319Z,49.42
2022-10-13T14:50:04.408Z,53.63
2022-10-13T14:52:32.125Z,54.10
2022-10-13T14:54:59.912Z,64.13
2022-10-13T14:57:28.017Z,63.78
2022-10-13T14:59:59.334Z,54.95
2022-10-13T15:02:30.035Z,58.45
2022-10-13T15:04:58.010Z,51.10
2022-10-13T15:07:25.741Z,56.35
2022-10-13T15:10:04.843Z,56.45
2022-10-13T15:12:34.527Z,77.13
2022-10-13T15:15:02.518Z,72.28
2022-10-13T15:17:33.270Z,63.50
2022-10-13T15:20:01.231Z,59.90
2022-10-13T15:22:29.153Z,64.40
2022-10-13T15:24:57.414Z,61.45
2022-10-13T15:27:25.454Z,59.10
2022-10-13T15:29:53.249Z,70.70
2022-10-13T15:32:21.822Z,63.30
2022-10-13T15:34:55.944Z,64.55
2022-10-13T15:37:24.329Z,65.38
2022-10-13T15:39:57.205Z,65.10
2022-10-13T15:42:25.468Z,71.13
2022-10-13T15:45:10.332Z,74.13
2022-10-13T15:47:38.952Z,62.45
2022-10-13T15:50:08.080Z,68.93
2022-10-13T15:52:40.518Z,58.28
2022-10-13T15:55:11.478Z,75.00
2022-10-13T15:57:39.483Z,71.20
2022-10-13T16:00:11.126Z,83.93
2022-10-13T16:02:45.231Z,99.78
2022-10-13T16:05:13.530Z,78.28
2022-10-13T16:07:42.154Z,76.93
2022-10-13T16:10:12.764Z,74.43
2022-10-13T16:12:45.448Z,71.90
2022-10-13T16:15:19.729Z,71.40
2022-10-13T16:17:51.372Z,86.45
2022-10-13T16:20:21.437Z,78.78
2022-10-13T16:22:49.529Z,79.93
2022-10-13T16:25:17.449Z,83.72
2022-10-13T16:27:45.495Z,72.13
2022-10-13T16:30:14.132Z,75.63
2022-10-13T16:32:42.337Z,82.15
2022-10-13T16:35:10.906Z,85.68
2022-10-13T16:37:39.556Z,77.68
2022-10-13T16:40:08.470Z,89.85
2022-10-13T16:42:36.959Z,82.15
2022-10-13T16:45:06.125Z,93.00
2022-10-13T16:47:34.934Z,106.15
2022-10-13T16:50:06.542Z,90.65
2022-10-13T16:52:34.567Z,73.97
2022-10-13T16:55:04.209Z,81.35
2022-10-13T16:57:33.051Z,72.85
2022-10-13T17:00:00.925Z,60.05
2022-10-13T17:02:29.742Z,58.10
2022-10-13T17:04:57.627Z,58.33
2022-10-13T17:07:25.486Z,58.58
2022-10-13T17:09:53.371Z,59.78
2022-10-13T17:12:21.159Z,61.65
2022-10-13T17:14:49.089Z,73.22
2022-10-13T17:17:16.979Z,84.07
2022-10-13T17:19:44.743Z,87.88
2022-10-13T17:22:12.481Z,83.75
2022-10-13T17:24:43.131Z,84.38
2022-10-13T17:27:10.869Z,77.05
2022-10-13T17:29:38.609Z,76.38
2022-10-13T17:32:06.383Z,72.75
2022-10-13T17:34:35.768Z,72.40
2022-10-13T17:37:05.529Z,74.53
2022-10-13T17:39:33.294Z,89.18
2022-10-13T17:42:01.155Z,83.95
2022-10-13T17:44:28.916Z,77.88
2022-10-13T17:46:56.705Z,79.38
2022-10-13T17:49:25.043Z,82.25
2022-10-13T17:51:54.509Z,105.88
2022-10-13T17:54:22.435Z,97.68
2022-10-13T17:56:50.970Z,90.45
2022-10-13T17:59:18.800Z,102.78
2022-10-13T18:01:47.193Z,100.18
2022-10-13T18:04:19.018Z,102.63
2022-10-13T18:06:47.198Z,97.75
2022-10-13T18:09:19.363Z,96.07
2022-10-13T18:11:51.142Z,90.95
2022-10-13T18:14:22.693Z,95.53
2022-10-13T18:16:52.608Z,98.07
2022-10-13T18:19:21.728Z,90.20
2022-10-13T18:21:53.661Z,90.18
2022-10-13T18:24:21.627Z,89.28
2022-10-13T18:26:49.361Z,69.15
2022-10-13T18:29:17.137Z,64.80
2022-10-13T18:31:44.906Z,70.22
2022-10-13T18:34:17.592Z,64.78
2022-10-13T18:36:49.049Z,56.00
2022-10-13T18:39:23.461Z,63.55
2022-10-13T18:41:52.396Z,60.15
2022-10-13T18:44:22.207Z,61.60
2022-10-13T18:46:52.365Z,61.55
2022-10-13T18:49:23.328Z,53.17
2022-10-13T18:51:52.039Z,62.67
2022-10-13T18:54:19.867Z,70.80
2022-10-13T18:56:47.607Z,82.47
2022-10-13T18:59:15.380Z,75.40
2022-10-13T19:01:44.429Z,70.78
2022-10-13T19:04:15.053Z,62.78
2022-10-13T19:06:44.643Z,73.20
2022-10-13T19:09:15.102Z,58.85
2022-10-13T19:11:43.132Z,60.53
2022-10-13T19:14:14.083Z,50.85
2022-10-13T19:16:44.100Z,60.00
2022-10-13T19:19:12.710Z,53.58
2022-10-13T19:21:42.129Z,60.65
2022-10-13T19:24:10.902Z,53.55
2022-10-13T19:26:39.375Z,54.20
2022-10-13T19:29:16.534Z,78.38
2022-10-13T19:31:44.721Z,65.78
2022-10-13T19:34:14.213Z,61.47
2022-10-13T19:36:46.332Z,57.95
2022-10-13T19:39:21.067Z,56.22
2022-10-13T19:41:51.734Z,56.30
2022-10-13T19:44:21.836Z,53.58
2022-10-13T19:46:51.577Z,61.42
2022-10-13T19:49:23.509Z,59.15
2022-10-13T19:51:53.781Z,48.47
2022-10-13T19:54:23.383Z,57.08
2022-10-13T19:56:52.937Z,54.13
2022-10-13T19:59:21.351Z,50.53
2022-10-13T20:01:52.453Z,54.80
2022-10-13T20:04:22.953Z,54.13
2022-10-13T20:07:07.405Z,59.55
2022-10-13T20:09:41.882Z,59.45
2022-10-13T20:12:10.171Z,64.82
2022-10-13T20:14:41.679Z,55.92
2022-10-13T20:17:09.626Z,57.03
2022-10-13T20:19:37.736Z,62.50
2022-10-13T20:22:05.445Z,110.03
2022-10-13T20:24:33.269Z,143.80
2022-10-13T20:27:01.757Z,161.80
2022-10-13T20:29:30.385Z,87.75
2022-10-13T20:31:58.122Z,68.35
2022-10-13T20:34:26.042Z,64.18
2022-10-13T20:36:54.087Z,140.88
2022-10-13T20:39:21.889Z,122.82
2022-10-13T20:41:49.661Z,94.40
2022-10-13T20:44:18.161Z,74.93
2022-10-13T20:46:46.079Z,67.35
2022-10-13T20:49:13.871Z,67.07
2022-10-13T20:51:43.221Z,71.05
2022-10-13T20:54:13.660Z,67.97
2022-10-13T20:59:14.651Z,80.80
2022-10-13T21:01:43.363Z,79.57
2022-10-13T21:04:11.460Z,73.30
2022-10-13T21:06:41.847Z,66.88
2022-10-13T21:09:10.452Z,58.63
2022-10-13T21:11:39.889Z,77.53
2022-10-13T21:14:09.696Z,65.05
2022-10-13T21:16:38.535Z,61.15
2022-10-13T21:19:09.755Z,66.22
2022-10-13T21:21:38.415Z,62.38
2022-10-13T21:24:08.215Z,51.58
2022-10-13T21:26:36.887Z,53.22
2022-10-13T21:29:05.359Z,54.75
2022-10-13T21:31:36.258Z,51.92
2022-10-13T21:34:04.396Z,50.03
2022-10-13T21:36:33.749Z,51.03
2022-10-13T21:39:05.234Z,51.65
2022-10-13T21:41:34.150Z,53.15
2022-10-13T21:44:02.734Z,51.20
2022-10-13T21:46:35.061Z,55.92
2022-10-13T21:49:05.881Z,55.55
2022-10-13T21:51:39.968Z,53.03
2022-10-13T21:54:13.184Z,50.53
2022-10-13T21:56:42.215Z,50.05
2022-10-13T21:59:12.868Z,47.08
2022-10-13T22:01:41.249Z,47.58
2022-10-13T22:04:14.878Z,46.45
2022-10-13T22:06:43.392Z,51.83
2022-10-13T22:09:11.283Z,49.65
2022-10-13T22:11:40.067Z,50.10
2022-10-13T22:14:12.272Z,57.28
2022-10-13T22:16:53.292Z,42.47
2022-10-13T22:19:24.609Z,59.20
2022-10-13T22:21:52.409Z,65.05
2022-10-13T22:24:21.958Z,53.97
2022-10-13T22:26:50.619Z,52.72
2022-10-13T22:29:22.003Z,52.13
2022-10-13T22:31:55.185Z,48.20
2022-10-13T22:34:23.949Z,51.33
2022-10-13T22:36:51.703Z,47.03
2022-10-13T22:39:19.391Z,41.85
2022-10-13T22:41:48.222Z,40.20
2022-10-13T22:44:16.137Z,41.88
2022-10-13T22:46:43.835Z,47.40
2022-10-13T22:49:14.885Z,49.00
2022-10-13T22:51:42.547Z,47.72
2022-10-13T22:54:12.557Z,49.47
2022-10-13T22:56:41.868Z,50.22
2022-10-13T22:59:12.994Z,46.70
2022-10-13T23:01:40.903Z,44.85
2022-10-13T23:04:08.905Z,50.75
2022-10-13T23:06:36.801Z,43.15
2022-10-13T23:09:10.910Z,45.72
2022-10-13T23:11:38.681Z,45.30
2022-10-13T23:14:09.115Z,42.38
2022-10-13T23:16:36.923Z,44.63
2022-10-13T23:19:04.868Z,45.25
2022-10-13T23:21:32.774Z,40.95
2022-10-13T23:24:06.797Z,40.85
2022-10-13T23:26:35.059Z,40.67
2022-10-13T23:29:04.912Z,41.10
2022-10-13T23:31:33.115Z,39.30
2022-10-13T23:34:00.912Z,41.20
2022-10-13T23:36:31.529Z,39.92
2022-10-13T23:39:04.109Z,42.78
2022-10-13T23:41:32.587Z,43.58
2022-10-13T23:44:00.415Z,39.65
2022-10-13T23:46:28.373Z,41.25
2022-10-13T23:48:56.637Z,47.10
2022-10-13T23:51:26.235Z,45.42
2022-10-13T23:53:56.265Z,42.47
2022-10-13T23:56:24.799Z,39.95
2022-10-13T23:58:52.546Z,45.03
